createdAt,value
2023-01-13T00:00:11.083Z,68.27
2023-01-13T00:01:15.073Z,68.35
2023-01-13T00:02:11.148Z,68.37
2023-01-13T00:03:11.071Z,68.14
2023-01-13T00:04:11.074Z,68.41
2023-01-13T00:05:11.067Z,68.20
2023-01-13T00:06:16.067Z,68.24
2023-01-13T00:07:11.076Z,68.23
2023-01-13T00:08:11.073Z,68.54
2023-01-13T00:09:11.066Z,68.54
2023-01-13T00:10:11.133Z,68.67
2023-01-13T00:11:11.074Z,68.67
2023-01-13T00:12:11.065Z,68.77
2023-01-13T00:13:11.070Z,68.75
2023-01-13T00:14:11.070Z,68.60
2023-01-13T00:15:11.069Z,68.29
2023-01-13T00:16:12.205Z,68.32
2023-01-13T00:17:11.069Z,68.34
2023-01-13T00:18:11.067Z,68.22
2023-01-13T00:19:11.072Z,68.29
2023-01-13T00:20:11.068Z,68.25
2023-01-13T00:21:13.069Z,68.29
2023-01-13T00:22:11.074Z,68.25
2023-01-13T00:23:11.072Z,68.33
2023-01-13T00:24:11.069Z,68.16
2023-01-13T00:25:11.069Z,68.30
2023-01-13T00:26:14.069Z,68.44
2023-01-13T00:27:11.074Z,68.44
2023-01-13T00:28:11.079Z,68.42
2023-01-13T00:29:11.071Z,68.20
2023-01-13T00:30:11.074Z,67.89
2023-01-13T00:31:16.322Z,68.07
2023-01-13T00:32:11.072Z,68.07
2023-01-13T00:33:11.070Z,67.84
2023-01-13T00:34:11.078Z,67.99
2023-01-13T00:35:11.084Z,67.86
2023-01-13T00:36:13.094Z,67.94
2023-01-13T00:37:11.074Z,67.94
2023-01-13T00:38:11.077Z,67.91
2023-01-13T00:39:11.069Z,67.72
2023-01-13T00:40:11.070Z,67.89
2023-01-13T00:41:13.079Z,67.97
2023-01-13T00:42:15.070Z,67.17
2023-01-13T00:43:15.076Z,67.77
2023-01-13T00:44:11.084Z,67.62
2023-01-13T00:45:11.072Z,67.63
2023-01-13T00:46:11.137Z,67.46
2023-01-13T00:47:11.069Z,67.37
2023-01-13T00:48:13.072Z,67.48
2023-01-13T00:49:11.069Z,66.94
2023-01-13T00:50:11.092Z,67.51
2023-01-13T00:51:12.075Z,67.23
2023-01-13T00:52:12.067Z,67.30
2023-01-13T00:53:11.067Z,67.11
2023-01-13T00:54:11.072Z,67.13
2023-01-13T00:55:11.067Z,67.06
2023-01-13T00:56:13.073Z,66.96
2023-01-13T00:57:11.072Z,67.14
2023-01-13T00:58:11.071Z,66.81
2023-01-13T00:59:12.068Z,67.19
2023-01-13T01:00:11.079Z,67.15
2023-01-13T01:01:18.202Z,67.08
2023-01-13T01:02:11.272Z,67.34
2023-01-13T01:03:15.065Z,67.22
2023-01-13T01:04:11.069Z,66.91
2023-01-13T01:05:11.066Z,67.15
2023-01-13T01:06:18.061Z,67.31
2023-01-13T01:07:11.068Z,67.19
2023-01-13T01:08:11.056Z,67.07
2023-01-13T01:09:12.068Z,67.22
2023-01-13T01:10:11.069Z,67.38
2023-01-13T01:11:11.063Z,67.38
2023-01-13T01:12:11.058Z,67.23
2023-01-13T01:13:11.065Z,67.08
2023-01-13T01:14:11.057Z,67.09
2023-01-13T01:15:11.074Z,67.09
2023-01-13T01:16:12.135Z,67.35
2023-01-13T01:17:11.059Z,67.35
2023-01-13T01:18:11.064Z,67.33
2023-01-13T01:19:11.082Z,67.40
2023-01-13T01:20:11.061Z,67.29
2023-01-13T01:21:11.057Z,67.21
2023-01-13T01:22:11.068Z,67.28
2023-01-13T01:23:11.059Z,67.39
2023-01-13T01:24:11.071Z,67.35
2023-01-13T01:25:11.063Z,67.49
2023-01-13T01:26:16.058Z,67.47
2023-01-13T01:27:11.057Z,67.45
2023-01-13T01:28:11.057Z,67.55
2023-01-13T01:29:12.070Z,67.35
2023-01-13T01:30:11.066Z,67.44
2023-01-13T01:31:19.078Z,67.61
2023-01-13T01:32:11.066Z,67.69
2023-01-13T01:33:11.061Z,67.55
2023-01-13T01:34:11.066Z,67.67
2023-01-13T01:35:11.066Z,67.77
2023-01-13T01:36:11.061Z,67.77
2023-01-13T01:37:11.057Z,67.69
2023-01-13T01:38:11.061Z,67.80
2023-01-13T01:39:11.061Z,67.83
2023-01-13T01:40:11.060Z,67.79
2023-01-13T01:41:13.064Z,67.96
2023-01-13T01:42:16.062Z,67.78
2023-01-13T01:43:19.067Z,67.85
2023-01-13T01:44:19.070Z,67.85
2023-01-13T01:45:18.069Z,68.04
2023-01-13T01:46:11.063Z,67.99
2023-01-13T01:47:11.075Z,67.90
2023-01-13T01:48:11.061Z,68.04
2023-01-13T01:49:19.064Z,67.94
2023-01-13T01:50:11.062Z,68.06
2023-01-13T01:51:13.055Z,67.92
2023-01-13T01:52:14.064Z,68.06
2023-01-13T01:53:18.078Z,67.89
2023-01-13T01:54:14.059Z,68.08
2023-01-13T01:55:17.066Z,67.74
2023-01-13T01:56:11.065Z,67.93
2023-01-13T01:57:13.066Z,67.78
2023-01-13T01:58:19.059Z,67.72
2023-01-13T01:59:11.062Z,67.79
2023-01-13T02:00:11.075Z,67.83
2023-01-13T02:01:11.239Z,67.69
2023-01-13T02:02:11.166Z,67.72
2023-01-13T02:03:11.080Z,68.02
2023-01-13T02:04:16.068Z,68.01
2023-01-13T02:05:11.066Z,67.81
2023-01-13T02:06:11.072Z,67.82
2023-01-13T02:07:11.065Z,67.90
2023-01-13T02:08:12.064Z,68.01
2023-01-13T02:09:11.071Z,68.11
2023-01-13T02:10:12.063Z,68.10
2023-01-13T02:11:15.066Z,68.03
2023-01-13T02:12:15.069Z,68.30
2023-01-13T02:13:12.063Z,68.23
2023-01-13T02:14:11.062Z,68.34
2023-01-13T02:15:19.078Z,68.25
2023-01-13T02:16:16.104Z,68.23
2023-01-13T02:17:19.060Z,68.19
2023-01-13T02:18:19.060Z,68.32
2023-01-13T02:19:19.066Z,68.38
2023-01-13T02:20:19.085Z,68.30
2023-01-13T02:21:19.066Z,68.54
2023-01-13T02:22:19.061Z,68.26
2023-01-13T02:23:19.059Z,68.16
2023-01-13T02:24:23.063Z,68.26
2023-01-13T02:25:21.075Z,68.30
2023-01-13T02:26:19.063Z,68.29
2023-01-13T02:27:19.064Z,68.23
2023-01-13T02:28:21.063Z,68.27
2023-01-13T02:29:23.063Z,68.27
2023-01-13T02:30:23.069Z,68.20
2023-01-13T02:31:16.099Z,68.18
2023-01-13T02:32:18.074Z,68.12
2023-01-13T02:33:19.068Z,67.99
2023-01-13T02:34:19.063Z,68.08
2023-01-13T02:35:19.073Z,68.22
2023-01-13T02:36:23.064Z,68.02
2023-01-13T02:37:21.064Z,67.90
2023-01-13T02:38:12.066Z,67.93
2023-01-13T02:39:18.072Z,67.98
2023-01-13T02:40:20.072Z,67.89
2023-01-13T02:41:24.070Z,67.88
2023-01-13T02:42:20.067Z,67.81
2023-01-13T02:43:22.062Z,67.68
2023-01-13T02:44:12.072Z,67.69
2023-01-13T02:45:16.068Z,67.69
2023-01-13T02:46:15.068Z,67.42
2023-01-13T02:47:13.064Z,67.26
2023-01-13T02:48:11.063Z,67.21
2023-01-13T02:49:14.073Z,67.22
2023-01-13T02:50:14.072Z,67.24
2023-01-13T02:51:14.067Z,67.27
2023-01-13T02:52:17.075Z,67.01
2023-01-13T02:53:20.065Z,66.95
2023-01-13T02:54:14.067Z,66.86
2023-01-13T02:55:18.066Z,66.96
2023-01-13T02:56:11.065Z,66.82
2023-01-13T02:57:11.068Z,66.81
2023-01-13T02:58:12.074Z,67.00
2023-01-13T02:59:11.068Z,66.74
2023-01-13T03:00:12.069Z,66.68
2023-01-13T03:01:11.170Z,66.72
2023-01-13T03:02:12.287Z,66.59
2023-01-13T03:03:11.072Z,66.71
2023-01-13T03:04:19.067Z,66.67
2023-01-13T03:05:14.070Z,66.62
2023-01-13T03:06:21.076Z,66.62
2023-01-13T03:07:19.071Z,66.84
2023-01-13T03:08:21.068Z,66.71
2023-01-13T03:09:19.081Z,66.52
2023-01-13T03:10:21.078Z,66.56
2023-01-13T03:11:14.069Z,66.53
2023-01-13T03:12:22.071Z,66.96
2023-01-13T03:13:19.071Z,66.72
2023-01-13T03:14:21.073Z,66.60
2023-01-13T03:15:21.073Z,66.38
2023-01-13T03:16:21.153Z,66.41
2023-01-13T03:17:21.095Z,66.32
2023-01-13T03:18:19.084Z,66.34
2023-01-13T03:19:19.073Z,66.32
2023-01-13T03:20:19.074Z,66.37
2023-01-13T03:21:19.067Z,66.27
2023-01-13T03:22:19.086Z,66.41
2023-01-13T03:23:21.071Z,66.46
2023-01-13T03:24:19.072Z,66.41
2023-01-13T03:25:19.072Z,66.48
2023-01-13T03:26:16.070Z,66.55
2023-01-13T03:27:19.075Z,66.48
2023-01-13T03:28:20.072Z,66.54
2023-01-13T03:29:21.072Z,66.74
2023-01-13T03:30:21.067Z,66.69
2023-01-13T03:31:16.075Z,66.80
2023-01-13T03:32:17.080Z,66.82
2023-01-13T03:33:23.073Z,66.80
2023-01-13T03:34:16.071Z,66.95
2023-01-13T03:35:21.070Z,66.95
2023-01-13T03:36:12.066Z,66.97
2023-01-13T03:37:11.075Z,67.03
2023-01-13T03:38:18.070Z,67.14
2023-01-13T03:39:15.068Z,67.17
2023-01-13T03:40:18.073Z,67.28
2023-01-13T03:41:21.070Z,67.42
2023-01-13T03:42:13.071Z,67.16
2023-01-13T03:43:19.082Z,67.30
2023-01-13T03:44:24.073Z,67.32
2023-01-13T03:45:15.077Z,67.57
2023-01-13T03:46:18.154Z,67.49
2023-01-13T03:47:21.071Z,67.46
2023-01-13T03:48:16.085Z,67.42
2023-01-13T03:49:13.074Z,67.71
2023-01-13T03:50:17.097Z,67.66
2023-01-13T03:51:13.071Z,67.59
2023-01-13T03:52:13.071Z,67.63
2023-01-13T03:53:17.074Z,67.63
2023-01-13T03:54:13.072Z,67.60
2023-01-13T03:55:17.096Z,67.76
2023-01-13T03:56:20.101Z,67.89
2023-01-13T03:57:12.086Z,67.83
2023-01-13T03:58:18.129Z,68.19
2023-01-13T03:59:15.074Z,68.09
2023-01-13T04:00:12.070Z,68.14
2023-01-13T04:01:18.213Z,68.25
2023-01-13T04:02:18.163Z,68.41
2023-01-13T04:03:17.064Z,68.35
2023-01-13T04:04:18.069Z,68.62
2023-01-13T04:05:11.060Z,68.82
2023-01-13T04:06:17.091Z,68.89
2023-01-13T04:07:19.062Z,68.79
2023-01-13T04:08:20.071Z,69.02
2023-01-13T04:09:21.072Z,69.03
2023-01-13T04:10:11.074Z,69.21
2023-01-13T04:11:17.061Z,69.29
2023-01-13T04:12:14.080Z,69.42
2023-01-13T04:13:14.062Z,69.54
2023-01-13T04:14:11.063Z,69.62
2023-01-13T04:15:11.065Z,69.56
2023-01-13T04:16:11.098Z,69.68
2023-01-13T04:17:11.066Z,69.85
2023-01-13T04:18:19.082Z,69.81
2023-01-13T04:19:11.075Z,69.82
2023-01-13T04:20:11.068Z,69.97
2023-01-13T04:21:11.067Z,69.98
2023-01-13T04:22:11.079Z,70.24
2023-01-13T04:23:11.066Z,70.27
2023-01-13T04:24:11.090Z,70.21
2023-01-13T04:25:11.074Z,70.37
2023-01-13T04:26:11.061Z,70.53
2023-01-13T04:27:11.064Z,70.62
2023-01-13T04:28:11.080Z,70.69
2023-01-13T04:29:11.061Z,70.62
2023-01-13T04:30:11.075Z,71.04
2023-01-13T04:31:11.231Z,71.09
2023-01-13T04:32:11.062Z,71.10
2023-01-13T04:33:11.068Z,71.17
2023-01-13T04:34:11.074Z,71.21
2023-01-13T04:35:11.062Z,71.18
2023-01-13T04:36:11.059Z,71.21
2023-01-13T04:37:11.072Z,71.31
2023-01-13T04:38:15.063Z,71.40
2023-01-13T04:39:11.064Z,71.52
2023-01-13T04:40:11.079Z,71.38
2023-01-13T04:41:11.065Z,71.46
2023-01-13T04:42:11.062Z,71.55
2023-01-13T04:43:11.073Z,71.62
2023-01-13T04:44:11.079Z,71.72
2023-01-13T04:45:11.064Z,71.92
2023-01-13T04:46:11.105Z,71.90
2023-01-13T04:47:11.070Z,72.05
2023-01-13T04:48:11.066Z,72.06
2023-01-13T04:49:11.066Z,72.08
2023-01-13T04:50:11.078Z,72.16
2023-01-13T04:51:11.060Z,72.22
2023-01-13T04:52:11.076Z,72.25
2023-01-13T04:53:11.065Z,72.18
2023-01-13T04:54:11.069Z,72.48
2023-01-13T04:55:11.076Z,72.47
2023-01-13T04:56:11.075Z,72.70
2023-01-13T04:57:11.067Z,72.58
2023-01-13T04:58:11.064Z,72.79
2023-01-13T04:59:11.069Z,72.57
2023-01-13T05:00:11.064Z,72.61
2023-01-13T05:01:11.235Z,72.63
2023-01-13T05:02:12.127Z,72.79
2023-01-13T05:03:11.065Z,72.85
2023-01-13T05:04:11.066Z,72.96
2023-01-13T05:05:11.070Z,72.86
2023-01-13T05:06:11.066Z,73.12
2023-01-13T05:07:11.069Z,72.94
2023-01-13T05:08:11.078Z,72.93
2023-01-13T05:09:11.066Z,72.93
2023-01-13T05:10:11.067Z,73.05
2023-01-13T05:11:15.067Z,73.07
2023-01-13T05:12:15.067Z,73.23
2023-01-13T05:13:15.067Z,73.36
2023-01-13T05:14:15.082Z,73.30
2023-01-13T05:15:15.067Z,73.24
2023-01-13T05:16:15.117Z,73.46
2023-01-13T05:17:12.075Z,73.44
2023-01-13T05:18:11.083Z,73.62
2023-01-13T05:19:11.065Z,73.63
2023-01-13T05:20:11.072Z,73.62
2023-01-13T05:21:15.074Z,73.73
2023-01-13T05:22:15.069Z,73.76
2023-01-13T05:23:15.066Z,73.77
2023-01-13T05:24:15.067Z,73.89
2023-01-13T05:25:15.082Z,73.94
2023-01-13T05:26:11.069Z,74.05
2023-01-13T05:27:11.079Z,74.00
2023-01-13T05:28:11.078Z,74.10
2023-01-13T05:29:11.075Z,74.11
2023-01-13T05:30:11.065Z,74.23
2023-01-13T05:31:11.126Z,74.22
2023-01-13T05:32:12.078Z,74.30
2023-01-13T05:33:12.072Z,74.33
2023-01-13T05:34:11.071Z,74.12
2023-01-13T05:35:11.075Z,74.25
2023-01-13T05:36:11.066Z,74.19
2023-01-13T05:37:11.078Z,74.36
2023-01-13T05:38:11.075Z,74.36
2023-01-13T05:39:11.067Z,74.52
2023-01-13T05:40:15.066Z,74.34
2023-01-13T05:41:15.087Z,74.24
2023-01-13T05:42:15.071Z,74.53
2023-01-13T05:43:17.069Z,74.81
2023-01-13T05:44:11.066Z,74.75
2023-01-13T05:45:11.075Z,74.74
2023-01-13T05:46:11.092Z,74.96
2023-01-13T05:47:11.066Z,75.10
2023-01-13T05:48:11.082Z,74.98
2023-01-13T05:49:11.071Z,75.07
2023-01-13T05:50:11.065Z,75.15
2023-01-13T05:51:12.087Z,75.33
2023-01-13T05:52:11.073Z,75.29
2023-01-13T05:53:11.066Z,75.25
2023-01-13T05:54:11.073Z,75.29
2023-01-13T05:55:11.070Z,75.10
2023-01-13T05:56:11.076Z,75.26
2023-01-13T05:57:11.073Z,75.28
2023-01-13T05:58:11.074Z,75.16
2023-01-13T05:59:11.065Z,75.09
2023-01-13T06:00:11.073Z,75.09
2023-01-13T06:01:11.110Z,75.28
2023-01-13T06:02:11.067Z,75.16
2023-01-13T06:03:11.159Z,75.08
2023-01-13T06:04:11.131Z,75.16
2023-01-13T06:05:11.072Z,75.15
2023-01-13T06:06:12.079Z,75.16
2023-01-13T06:07:11.071Z,75.18
2023-01-13T06:08:11.086Z,75.28
2023-01-13T06:09:11.080Z,75.19
2023-01-13T06:10:11.072Z,75.24
2023-01-13T06:11:11.075Z,75.27
2023-01-13T06:12:12.076Z,75.37
2023-01-13T06:13:11.077Z,75.30
2023-01-13T06:14:11.071Z,75.32
2023-01-13T06:15:11.069Z,75.23
2023-01-13T06:16:11.133Z,75.31
2023-01-13T06:17:13.070Z,75.40
2023-01-13T06:18:11.073Z,75.38
2023-01-13T06:19:13.105Z,75.34
2023-01-13T06:20:12.072Z,75.35
2023-01-13T06:21:11.074Z,75.54
2023-01-13T06:22:21.073Z,75.77
2023-01-13T06:23:11.078Z,75.97
2023-01-13T06:24:11.079Z,76.02
2023-01-13T06:25:17.080Z,76.02
2023-01-13T06:26:15.073Z,75.97
2023-01-13T06:27:11.072Z,76.01
2023-01-13T06:28:11.078Z,75.96
2023-01-13T06:29:11.076Z,75.94
2023-01-13T06:30:11.069Z,75.95
2023-01-13T06:31:11.173Z,76.08
2023-01-13T06:32:16.075Z,76.11
2023-01-13T06:33:14.077Z,76.21
2023-01-13T06:34:11.073Z,76.08
2023-01-13T06:35:13.081Z,75.99
2023-01-13T06:36:20.079Z,76.05
2023-01-13T06:37:12.070Z,76.02
2023-01-13T06:38:12.077Z,76.14
2023-01-13T06:39:11.074Z,76.01
2023-01-13T06:40:11.078Z,75.83
2023-01-13T06:41:11.076Z,75.70
2023-01-13T06:42:15.089Z,75.92
2023-01-13T06:43:16.449Z,75.79
2023-01-13T06:44:11.074Z,75.64
2023-01-13T06:45:11.077Z,75.61
2023-01-13T06:46:11.077Z,75.46
2023-01-13T06:47:11.073Z,75.57
2023-01-13T06:48:11.077Z,75.51
2023-01-13T06:49:11.081Z,75.43
2023-01-13T06:50:11.075Z,75.43
2023-01-13T06:51:11.079Z,75.64
2023-01-13T06:52:11.075Z,75.53
2023-01-13T06:53:11.074Z,75.49
2023-01-13T06:54:11.088Z,75.37
2023-01-13T06:55:11.074Z,75.34
2023-01-13T06:56:11.077Z,75.35
2023-01-13T06:57:11.085Z,75.31
2023-01-13T06:58:11.078Z,75.34
2023-01-13T06:59:11.097Z,75.37
2023-01-13T07:00:11.064Z,75.41
2023-01-13T07:01:11.183Z,75.33
2023-01-13T07:02:11.205Z,75.32
2023-01-13T07:03:11.071Z,75.31
2023-01-13T07:04:11.058Z,75.33
2023-01-13T07:05:11.062Z,75.44
2023-01-13T07:06:11.071Z,75.39
2023-01-13T07:07:11.063Z,75.43
2023-01-13T07:08:11.070Z,75.37
2023-01-13T07:09:11.070Z,75.33
2023-01-13T07:10:12.057Z,75.30
2023-01-13T07:11:11.066Z,75.24
2023-01-13T07:12:11.071Z,75.20
2023-01-13T07:13:15.074Z,75.21
2023-01-13T07:14:15.071Z,75.09
2023-01-13T07:15:15.064Z,75.07
2023-01-13T07:16:11.114Z,75.11
2023-01-13T07:17:11.059Z,75.15
2023-01-13T07:18:11.079Z,75.01
2023-01-13T07:19:11.063Z,75.11
2023-01-13T07:20:11.060Z,75.08
2023-01-13T07:21:11.068Z,74.97
2023-01-13T07:22:13.064Z,74.96
2023-01-13T07:23:11.065Z,74.90
2023-01-13T07:24:11.068Z,74.83
2023-01-13T07:25:11.066Z,74.75
2023-01-13T07:26:11.061Z,74.81
2023-01-13T07:27:11.076Z,74.69
2023-01-13T07:28:11.072Z,74.69
2023-01-13T07:29:11.074Z,74.72
2023-01-13T07:30:11.073Z,74.70
2023-01-13T07:31:15.137Z,74.74
2023-01-13T07:32:11.067Z,74.89
2023-01-13T07:33:11.062Z,74.85
2023-01-13T07:34:11.068Z,74.81
2023-01-13T07:35:11.063Z,74.83
2023-01-13T07:36:11.097Z,74.81
2023-01-13T07:37:11.068Z,74.73
2023-01-13T07:38:11.066Z,74.68
2023-01-13T07:39:11.064Z,74.59
2023-01-13T07:40:11.066Z,74.49
2023-01-13T07:41:16.065Z,74.41
2023-01-13T07:42:15.064Z,74.42
2023-01-13T07:43:15.065Z,74.38
2023-01-13T07:44:11.117Z,74.36
2023-01-13T07:45:12.401Z,74.26
2023-01-13T07:46:11.090Z,74.28
2023-01-13T07:47:12.080Z,74.13
2023-01-13T07:48:11.083Z,74.38
2023-01-13T07:49:11.062Z,74.25
2023-01-13T07:50:11.085Z,74.23
2023-01-13T07:51:11.069Z,74.17
2023-01-13T07:52:11.065Z,74.03
2023-01-13T07:53:11.072Z,73.98
2023-01-13T07:54:11.073Z,73.90
2023-01-13T07:55:11.064Z,73.99
2023-01-13T07:56:11.080Z,73.82
2023-01-13T07:57:11.068Z,73.81
2023-01-13T07:58:11.067Z,73.68
2023-01-13T07:59:11.070Z,73.90
2023-01-13T08:00:12.858Z,73.71
2023-01-13T08:01:11.263Z,73.68
2023-01-13T08:02:13.372Z,73.53
2023-01-13T08:03:11.104Z,73.47
2023-01-13T08:04:11.066Z,73.52
2023-01-13T08:05:11.084Z,73.49
2023-01-13T08:06:11.068Z,73.33
2023-01-13T08:07:11.069Z,73.30
2023-01-13T08:08:11.067Z,73.33
2023-01-13T08:09:11.073Z,73.31
2023-01-13T08:10:11.069Z,73.26
2023-01-13T08:11:11.067Z,73.28
2023-01-13T08:12:15.092Z,73.28
2023-01-13T08:13:17.062Z,73.31
2023-01-13T08:14:11.070Z,73.35
2023-01-13T08:15:11.070Z,73.22
2023-01-13T08:16:13.115Z,73.19
2023-01-13T08:17:11.064Z,73.27
2023-01-13T08:18:11.074Z,73.07
2023-01-13T08:19:11.074Z,72.91
2023-01-13T08:20:11.065Z,73.01
2023-01-13T08:21:14.072Z,73.13
2023-01-13T08:22:11.067Z,73.12
2023-01-13T08:23:11.076Z,73.01
2023-01-13T08:24:12.069Z,73.04
2023-01-13T08:25:11.068Z,73.01
2023-01-13T08:26:12.071Z,72.84
2023-01-13T08:27:11.069Z,72.79
2023-01-13T08:28:11.067Z,72.77
2023-01-13T08:29:13.692Z,72.75
2023-01-13T08:30:11.072Z,72.76
2023-01-13T08:31:14.166Z,72.57
2023-01-13T08:32:11.067Z,72.62
2023-01-13T08:33:11.071Z,72.46
2023-01-13T08:34:11.070Z,72.47
2023-01-13T08:35:11.067Z,72.31
2023-01-13T08:36:11.071Z,72.27
2023-01-13T08:37:11.070Z,72.23
2023-01-13T08:38:11.069Z,72.22
2023-01-13T08:39:11.066Z,72.08
2023-01-13T08:40:11.070Z,72.13
2023-01-13T08:41:14.070Z,72.11
2023-01-13T08:42:11.080Z,71.95
2023-01-13T08:43:11.076Z,72.12
2023-01-13T08:44:11.069Z,71.95
2023-01-13T08:45:11.083Z,71.91
2023-01-13T08:46:11.169Z,71.97
2023-01-13T08:47:11.082Z,71.83
2023-01-13T08:48:11.075Z,71.85
2023-01-13T08:49:11.081Z,71.92
2023-01-13T08:50:11.072Z,71.75
2023-01-13T08:51:11.066Z,71.68
2023-01-13T08:52:11.081Z,71.65
2023-01-13T08:53:11.072Z,71.61
2023-01-13T08:54:11.066Z,71.60
2023-01-13T08:55:11.074Z,71.65
2023-01-13T08:56:11.068Z,71.70
2023-01-13T08:57:11.068Z,71.39
2023-01-13T08:58:15.617Z,71.41
2023-01-13T08:59:20.564Z,71.46
2023-01-13T09:00:11.078Z,71.50
2023-01-13T09:01:13.164Z,71.54
2023-01-13T09:02:14.214Z,71.52
2023-01-13T09:03:11.070Z,71.36
2023-01-13T09:04:18.107Z,71.40
2023-01-13T09:05:11.087Z,71.43
2023-01-13T09:06:11.070Z,71.35
2023-01-13T09:07:11.075Z,71.39
2023-01-13T09:08:11.074Z,71.42
2023-01-13T09:09:11.085Z,71.35
2023-01-13T09:10:11.077Z,71.49
2023-01-13T09:11:19.086Z,71.41
2023-01-13T09:12:15.081Z,71.46
2023-01-13T09:13:15.073Z,71.23
2023-01-13T09:14:11.078Z,71.27
2023-01-13T09:15:11.078Z,71.26
2023-01-13T09:16:11.150Z,71.34
2023-01-13T09:17:11.072Z,71.41
2023-01-13T09:18:11.081Z,71.55
2023-01-13T09:19:11.075Z,71.40
2023-01-13T09:20:11.078Z,71.23
2023-01-13T09:21:12.073Z,71.66
2023-01-13T09:22:14.074Z,71.60
2023-01-13T09:23:11.468Z,71.59
2023-01-13T09:24:11.072Z,71.61
2023-01-13T09:25:11.076Z,71.61
2023-01-13T09:26:11.081Z,71.52
2023-01-13T09:27:11.076Z,71.65
2023-01-13T09:28:11.087Z,71.56
2023-01-13T09:29:11.075Z,71.38
2023-01-13T09:30:11.085Z,71.47
2023-01-13T09:31:11.123Z,71.43
2023-01-13T09:32:13.073Z,71.38
2023-01-13T09:33:15.077Z,71.35
2023-01-13T09:34:20.084Z,71.16
2023-01-13T09:35:11.088Z,71.42
2023-01-13T09:36:11.073Z,71.20
2023-01-13T09:37:11.077Z,71.31
2023-01-13T09:38:11.082Z,71.51
2023-01-13T09:39:11.074Z,71.35
2023-01-13T09:40:18.078Z,71.30
2023-01-13T09:41:23.088Z,71.31
2023-01-13T09:42:23.076Z,71.32
2023-01-13T09:43:20.077Z,71.23
2023-01-13T09:44:16.075Z,71.38
2023-01-13T09:45:16.075Z,71.26
2023-01-13T09:46:21.158Z,71.26
2023-01-13T09:47:19.077Z,71.20
2023-01-13T09:48:18.090Z,71.10
2023-01-13T09:49:18.077Z,71.13
2023-01-13T09:50:19.084Z,71.02
2023-01-13T09:51:16.087Z,71.09
2023-01-13T09:52:18.076Z,71.06
2023-01-13T09:53:14.089Z,70.96
2023-01-13T09:54:21.084Z,71.08
2023-01-13T09:55:18.079Z,70.96
2023-01-13T09:56:12.074Z,70.89
2023-01-13T09:57:13.073Z,70.97
2023-01-13T09:58:17.080Z,70.95
2023-01-13T09:59:13.087Z,70.81
2023-01-13T10:00:20.111Z,70.81
2023-01-13T10:01:23.121Z,70.80
2023-01-13T10:02:19.104Z,70.60
2023-01-13T10:03:19.258Z,70.56
2023-01-13T10:04:14.061Z,70.58
2023-01-13T10:05:17.061Z,70.37
2023-01-13T10:06:19.086Z,70.24
2023-01-13T10:07:14.109Z,70.30
2023-01-13T10:08:19.062Z,70.27
2023-01-13T10:09:17.084Z,70.17
2023-01-13T10:10:17.073Z,69.82
2023-01-13T10:11:20.090Z,69.98
2023-01-13T10:12:20.074Z,69.84
2023-01-13T10:13:21.064Z,69.76
2023-01-13T10:14:19.064Z,69.63
2023-01-13T10:15:15.085Z,69.48
2023-01-13T10:16:21.156Z,69.41
2023-01-13T10:17:19.062Z,69.33
2023-01-13T10:18:22.074Z,69.25
2023-01-13T10:19:21.062Z,69.19
2023-01-13T10:20:19.095Z,68.89
2023-01-13T10:21:19.069Z,69.03
2023-01-13T10:22:21.062Z,68.87
2023-01-13T10:23:19.068Z,68.76
2023-01-13T10:24:19.080Z,68.51
2023-01-13T10:25:19.067Z,68.54
2023-01-13T10:26:21.225Z,68.45
2023-01-13T10:27:19.073Z,68.42
2023-01-13T10:28:14.062Z,68.38
2023-01-13T10:29:19.073Z,68.50
2023-01-13T10:30:18.073Z,68.45
2023-01-13T10:31:13.097Z,68.51
2023-01-13T10:32:11.064Z,68.37
2023-01-13T10:33:15.075Z,68.28
2023-01-13T10:34:11.073Z,68.36
2023-01-13T10:35:11.066Z,68.37
2023-01-13T10:36:17.068Z,68.14
2023-01-13T10:37:19.073Z,68.08
2023-01-13T10:38:18.086Z,67.98
2023-01-13T10:39:15.068Z,68.16
2023-01-13T10:40:17.067Z,68.05
2023-01-13T10:41:19.082Z,68.07
2023-01-13T10:42:14.091Z,68.01
2023-01-13T10:43:11.067Z,68.01
2023-01-13T10:44:18.067Z,68.02
2023-01-13T10:45:21.075Z,67.95
2023-01-13T10:46:14.106Z,67.81
2023-01-13T10:47:19.070Z,67.75
2023-01-13T10:48:14.067Z,67.88
2023-01-13T10:49:19.069Z,67.74
2023-01-13T10:50:21.064Z,67.60
2023-01-13T10:51:19.088Z,67.65
2023-01-13T10:52:21.154Z,67.50
2023-01-13T10:53:19.078Z,67.53
2023-01-13T10:54:21.067Z,67.61
2023-01-13T10:55:19.077Z,67.50
2023-01-13T10:56:16.083Z,67.49
2023-01-13T10:57:19.067Z,67.18
2023-01-13T10:58:16.094Z,67.34
2023-01-13T10:59:19.075Z,67.54
2023-01-13T11:00:19.088Z,67.24
2023-01-13T11:01:19.354Z,67.16
2023-01-13T11:02:25.604Z,66.98
2023-01-13T11:03:20.387Z,66.92
2023-01-13T11:04:21.082Z,66.59
2023-01-13T11:05:21.076Z,66.72
2023-01-13T11:06:15.068Z,66.66
2023-01-13T11:07:19.069Z,66.58
2023-01-13T11:08:18.239Z,66.68
2023-01-13T11:09:19.082Z,66.48
2023-01-13T11:10:17.204Z,66.50
2023-01-13T11:11:19.068Z,66.46
2023-01-13T11:12:19.065Z,66.22
2023-01-13T11:13:18.071Z,66.48
2023-01-13T11:14:23.082Z,66.44
2023-01-13T11:15:14.067Z,66.34
2023-01-13T11:16:15.088Z,66.11
2023-01-13T11:17:21.091Z,66.33
2023-01-13T11:18:19.088Z,66.05
2023-01-13T11:19:18.071Z,66.10
2023-01-13T11:20:20.076Z,66.11
2023-01-13T11:21:19.072Z,66.08
2023-01-13T11:22:19.074Z,65.75
2023-01-13T11:23:21.071Z,66.11
2023-01-13T11:24:23.079Z,66.00
2023-01-13T11:25:19.077Z,66.04
2023-01-13T11:26:16.071Z,66.07
2023-01-13T11:27:18.068Z,66.04
2023-01-13T11:28:21.081Z,66.22
2023-01-13T11:29:17.080Z,65.96
2023-01-13T11:30:21.097Z,66.00
2023-01-13T11:31:18.137Z,65.95
2023-01-13T11:32:19.093Z,65.86
2023-01-13T11:33:21.088Z,65.92
2023-01-13T11:34:19.090Z,65.84
2023-01-13T11:35:17.080Z,65.95
2023-01-13T11:36:20.212Z,65.98
2023-01-13T11:37:19.097Z,65.89
2023-01-13T11:38:19.123Z,65.98
2023-01-13T11:39:19.106Z,65.91
2023-01-13T11:40:20.069Z,66.02
2023-01-13T11:41:21.096Z,66.16
2023-01-13T11:42:23.073Z,66.05
2023-01-13T11:43:21.085Z,66.01
2023-01-13T11:44:19.131Z,65.90
2023-01-13T11:45:20.068Z,65.83
2023-01-13T11:46:11.070Z,65.90
2023-01-13T11:47:12.071Z,65.70
2023-01-13T11:48:17.083Z,66.01
2023-01-13T11:49:16.084Z,65.96
2023-01-13T11:50:18.075Z,65.93
2023-01-13T11:51:21.084Z,66.23
2023-01-13T11:52:21.073Z,66.05
2023-01-13T11:53:19.073Z,66.13
2023-01-13T11:54:23.073Z,66.21
2023-01-13T11:55:20.561Z,66.25
2023-01-13T11:56:19.073Z,66.42
2023-01-13T11:57:21.085Z,66.56
2023-01-13T11:58:19.074Z,66.42
2023-01-13T11:59:21.075Z,66.59
2023-01-13T12:00:21.084Z,66.57
2023-01-13T12:01:18.113Z,66.54
2023-01-13T12:02:19.146Z,66.48
2023-01-13T12:03:21.235Z,66.54
2023-01-13T12:04:21.075Z,66.58
2023-01-13T12:05:19.070Z,66.40
2023-01-13T12:06:19.085Z,66.23
2023-01-13T12:07:25.093Z,66.09
2023-01-13T12:08:21.083Z,65.95
2023-01-13T12:09:21.076Z,66.07
2023-01-13T12:10:21.093Z,66.42
2023-01-13T12:11:21.080Z,66.43
2023-01-13T12:12:24.077Z,66.41
2023-01-13T12:13:21.084Z,66.30
2023-01-13T12:14:19.093Z,66.03
2023-01-13T12:15:19.091Z,66.26
2023-01-13T12:16:17.151Z,66.08
2023-01-13T12:17:18.077Z,65.80
2023-01-13T12:18:19.082Z,66.08
2023-01-13T12:19:23.077Z,65.84
2023-01-13T12:20:19.075Z,65.94
2023-01-13T12:21:21.073Z,65.88
2023-01-13T12:22:20.081Z,65.41
2023-01-13T12:23:19.079Z,65.47
2023-01-13T12:24:21.099Z,65.23
2023-01-13T12:25:20.077Z,65.50
2023-01-13T12:26:12.096Z,65.56
2023-01-13T12:27:19.087Z,65.37
2023-01-13T12:28:16.175Z,64.92
2023-01-13T12:29:16.097Z,64.73
2023-01-13T12:30:23.087Z,64.65
2023-01-13T12:31:11.077Z,64.48
2023-01-13T12:32:16.087Z,64.45
2023-01-13T12:33:19.100Z,64.47
2023-01-13T12:34:19.087Z,64.54
2023-01-13T12:35:21.083Z,64.48
2023-01-13T12:36:19.085Z,64.28
2023-01-13T12:37:21.088Z,64.21
2023-01-13T12:38:19.077Z,64.19
2023-01-13T12:39:19.081Z,64.22
2023-01-13T12:40:19.098Z,64.09
2023-01-13T12:41:19.078Z,64.14
2023-01-13T12:42:25.096Z,64.17
2023-01-13T12:43:19.078Z,63.83
2023-01-13T12:44:15.080Z,63.95
2023-01-13T12:45:20.074Z,63.88
2023-01-13T12:46:19.121Z,63.79
2023-01-13T12:47:19.089Z,63.77
2023-01-13T12:48:19.075Z,63.78
2023-01-13T12:49:19.080Z,63.95
2023-01-13T12:50:19.086Z,63.94
2023-01-13T12:51:19.083Z,63.72
2023-01-13T12:52:16.080Z,63.90